sensor_id;sensor_type;location;lat;lon;timestamp;pressure;altitude;pressure_sealevel;temperature;humidity
39891;BME280;25564;53.312;9.790;2023-05-21T00:02:00;101380.63;;;13.04;70.48
39891;BME280;25564;53.312;9.790;2023-05-21T00:04:34;101385.94;;;13.04;70.56
39891;BME280;25564;53.312;9.790;2023-05-21T00:07:06;101384.19;;;13.03;70.75
39891;BME280;25564;53.312;9.790;2023-05-21T00:09:38;101387.75;;;13.02;70.58
39891;BME280;25564;53.312;9.790;2023-05-21T00:12:10;101379.81;;;12.99;70.71
39891;BME280;25564;53.312;9.790;2023-05-21T00:14:41;101379.00;;;12.94;70.59
39891;BME280;25564;53.312;9.790;2023-05-21T00:17:12;101377.31;;;12.90;70.57
39891;BME280;25564;53.312;9.790;2023-05-21T00:19:44;101372.97;;;12.85;71.07
39891;BME280;25564;53.312;9.790;2023-05-21T00:22:16;101365.94;;;12.81;70.68
39891;BME280;25564;53.312;9.790;2023-05-21T00:24:47;101368.66;;;12.76;71.08
39891;BME280;25564;53.312;9.790;2023-05-21T00:27:18;101350.25;;;12.61;70.81
39891;BME280;25564;53.312;9.790;2023-05-21T00:29:50;101345.88;;;12.57;71.12
39891;BME280;25564;53.312;9.790;2023-05-21T00:32:21;101351.28;;;12.52;70.99
39891;BME280;25564;53.312;9.790;2023-05-21T00:34:53;101361.91;;;12.54;71.17
39891;BME280;25564;53.312;9.790;2023-05-21T00:37:24;101345.28;;;12.41;71.24
39891;BME280;25564;53.312;9.790;2023-05-21T00:39:56;101350.53;;;12.46;71.37
39891;BME280;25564;53.312;9.790;2023-05-21T00:42:28;101349.69;;;12.42;71.42
39891;BME280;25564;53.312;9.790;2023-05-21T00:45:00;101355.03;;;12.40;71.53
39891;BME280;25564;53.312;9.790;2023-05-21T00:47:34;101326.81;;;12.30;71.54
39891;BME280;25564;53.312;9.790;2023-05-21T00:50:07;101352.22;;;12.48;71.36
39891;BME280;25564;53.312;9.790;2023-05-21T00:52:39;101336.34;;;12.45;71.72
39891;BME280;25564;53.312;9.790;2023-05-21T00:55:13;101353.94;;;12.52;71.35
39891;BME280;25564;53.312;9.790;2023-05-21T00:57:45;101348.63;;;12.52;71.42
39891;BME280;25564;53.312;9.790;2023-05-21T01:00:16;101340.75;;;12.46;71.62
39891;BME280;25564;53.312;9.790;2023-05-21T01:02:48;101348.63;;;12.52;71.46
39891;BME280;25564;53.312;9.790;2023-05-21T01:05:20;101347.75;;;12.52;71.54
39891;BME280;25564;53.312;9.790;2023-05-21T01:07:52;101341.53;;;12.51;71.62
39891;BME280;25564;53.312;9.790;2023-05-21T01:10:25;101324.81;;;12.44;71.50
39891;BME280;25564;53.312;9.790;2023-05-21T01:12:57;101321.38;;;12.36;71.62
39891;BME280;25564;53.312;9.790;2023-05-21T01:15:28;101330.16;;;12.43;71.74
39891;BME280;25564;53.312;9.790;2023-05-21T01:18:00;101332.00;;;12.39;71.81
39891;BME280;25564;53.312;9.790;2023-05-21T01:20:32;101327.59;;;12.37;71.51
39891;BME280;25564;53.312;9.790;2023-05-21T01:23:04;101332.97;;;12.34;71.81
39891;BME280;25564;53.312;9.790;2023-05-21T01:25:35;101332.13;;;12.30;71.73
39891;BME280;25564;53.312;9.790;2023-05-21T01:28:07;101325.97;;;12.27;72.07
39891;BME280;25564;53.312;9.790;2023-05-21T01:30:40;101328.66;;;12.25;71.91
39891;BME280;25564;53.312;9.790;2023-05-21T01:33:15;101322.47;;;12.23;71.91
39891;BME280;25564;53.312;9.790;2023-05-21T01:36:01;101318.91;;;12.24;72.06
39891;BME280;25564;53.312;9.790;2023-05-21T01:41:10;101323.34;;;12.24;71.80
39891;BME280;25564;53.312;9.790;2023-05-21T01:43:44;101308.28;;;12.23;71.77
39891;BME280;25564;53.312;9.790;2023-05-21T01:46:19;101301.34;;;12.13;71.76
39891;BME280;25564;53.312;9.790;2023-05-21T01:48:52;101309.31;;;12.14;72.04
39891;BME280;25564;53.312;9.790;2023-05-21T01:51:26;101304.94;;;12.10;71.76
39891;BME280;25564;53.312;9.790;2023-05-21T01:53:58;101314.56;;;12.17;72.45
39891;BME280;25564;53.312;9.790;2023-05-21T01:56:29;101319.84;;;12.20;72.01
39891;BME280;25564;53.312;9.790;2023-05-21T01:59:04;101299.59;;;12.11;71.91
39891;BME280;25564;53.312;9.790;2023-05-21T02:01:36;101320.72;;;12.22;71.87
39891;BME280;25564;53.312;9.790;2023-05-21T02:04:07;101319.81;;;12.23;71.82
39891;BME280;25564;53.312;9.790;2023-05-21T02:06:39;101310.03;;;12.24;72.02
39891;BME280;25564;53.312;9.790;2023-05-21T02:09:11;101310.94;;;12.24;72.00
39891;BME280;25564;53.312;9.790;2023-05-21T02:11:43;101291.53;;;12.16;71.76
39891;BME280;25564;53.312;9.790;2023-05-21T02:14:14;101301.22;;;12.22;71.88
39891;BME280;25564;53.312;9.790;2023-05-21T02:16:46;101300.38;;;12.18;71.98
39891;BME280;25564;53.312;9.790;2023-05-21T02:19:18;101296.81;;;12.19;71.91
39891;BME280;25564;53.312;9.790;2023-05-21T02:21:49;101296.81;;;12.19;72.08
39891;BME280;25564;53.312;9.790;2023-05-21T02:24:21;101292.38;;;12.18;72.06
39891;BME280;25564;53.312;9.790;2023-05-21T02:26:54;101290.59;;;12.19;71.84
39891;BME280;25564;53.312;9.790;2023-05-21T02:29:25;101297.72;;;12.18;71.76
39891;BME280;25564;53.312;9.790;2023-05-21T02:31:57;101293.28;;;12.17;72.05
39891;BME280;25564;53.312;9.790;2023-05-21T02:34:28;101282.75;;;12.11;71.93
39891;BME280;25564;53.312;9.790;2023-05-21T02:37:02;101289.75;;;12.17;71.83
39891;BME280;25564;53.312;9.790;2023-05-21T02:39:33;101287.97;;;12.17;72.30
39891;BME280;25564;53.312;9.790;2023-05-21T02:42:05;101263.34;;;12.03;71.99
39891;BME280;25564;53.312;9.790;2023-05-21T02:44:36;101286.19;;;12.18;72.04
39891;BME280;25564;53.312;9.790;2023-05-21T02:47:07;101279.94;;;12.20;72.21
39891;BME280;25564;53.312;9.790;2023-05-21T02:49:40;101283.50;;;12.19;72.34
39891;BME280;25564;53.312;9.790;2023-05-21T02:52:12;101247.38;;;12.03;72.02
39891;BME280;25564;53.312;9.790;2023-05-21T02:54:44;101276.44;;;12.18;72.19
39891;BME280;25564;53.312;9.790;2023-05-21T02:57:15;101284.44;;;12.17;72.38
39891;BME280;25564;53.312;9.790;2023-05-21T02:59:48;101261.50;;;12.08;72.31
39891;BME280;25564;53.312;9.790;2023-05-21T03:02:19;101277.38;;;12.14;72.38
39891;BME280;25564;53.312;9.790;2023-05-21T03:04:51;101271.22;;;12.10;72.31
39891;BME280;25564;53.312;9.790;2023-05-21T03:07:22;101270.38;;;12.07;72.27
39891;BME280;25564;53.312;9.790;2023-05-21T03:09:54;101273.09;;;12.04;72.55
39891;BME280;25564;53.312;9.790;2023-05-21T03:12:25;101263.41;;;12.00;72.70
39891;BME280;25564;53.312;9.790;2023-05-21T03:14:57;101271.41;;;11.98;72.72
39891;BME280;25564;53.312;9.790;2023-05-21T03:17:29;101253.06;;;11.78;72.66
39891;BME280;25564;53.312;9.790;2023-05-21T03:20:01;101272.44;;;11.87;72.80
39891;BME280;25564;53.312;9.790;2023-05-21T03:22:35;101271.63;;;11.83;73.08
39891;BME280;25564;53.312;9.790;2023-05-21T03:25:08;101258.44;;;11.72;73.08
39891;BME280;25564;53.312;9.790;2023-05-21T03:27:40;101279.66;;;11.78;73.29
39891;BME280;25564;53.312;9.790;2023-05-21T03:30:11;101275.22;;;11.79;72.78
39891;BME280;25564;53.312;9.790;2023-05-21T03:32:43;101274.34;;;11.78;73.30
39891;BME280;25564;53.312;9.790;2023-05-21T03:35:15;101250.44;;;11.72;73.26
39891;BME280;25564;53.312;9.790;2023-05-21T03:37:47;101238.97;;;11.70;73.20
39891;BME280;25564;53.312;9.790;2023-05-21T03:40:18;101266.28;;;11.83;72.99
39891;BME280;25564;53.312;9.790;2023-05-21T03:42:49;101257.44;;;11.83;73.18
39891;BME280;25564;53.312;9.790;2023-05-21T03:45:20;101266.22;;;11.89;73.39
39891;BME280;25564;53.312;9.790;2023-05-21T03:47:52;101259.91;;;11.95;73.17
39891;BME280;25564;53.312;9.790;2023-05-21T03:50:23;101252.88;;;11.92;73.05
39891;BME280;25564;53.312;9.790;2023-05-21T03:52:55;101263.34;;;12.03;73.23
39891;BME280;25564;53.312;9.790;2023-05-21T03:55:26;101264.16;;;12.08;73.25
39891;BME280;25564;53.312;9.790;2023-05-21T03:57:57;101263.22;;;12.12;73.23
39891;BME280;25564;53.312;9.790;2023-05-21T04:00:29;101264.94;;;12.16;73.32
39891;BME280;25564;53.312;9.790;2023-05-21T04:03:03;101240.25;;;12.05;73.21
39891;BME280;25564;53.312;9.790;2023-05-21T04:05:34;101264.84;;;12.22;73.50
39891;BME280;25564;53.312;9.790;2023-05-21T04:08:06;101266.53;;;12.26;73.46
39891;BME280;25564;53.312;9.790;2023-05-21T04:10:37;101226.91;;;12.08;73.05
39891;BME280;25564;53.312;9.790;2023-05-21T04:13:08;101244.31;;;12.29;73.35
39891;BME280;25564;53.312;9.790;2023-05-21T04:15:40;101259.16;;;12.43;73.24
39891;BME280;25564;53.312;9.790;2023-05-21T04:18:13;101249.34;;;12.47;73.00
39891;BME280;25564;53.312;9.790;2023-05-21T04:20:47;101251.94;;;12.50;72.97
39891;BME280;25564;53.312;9.790;2023-05-21T04:23:20;101244.81;;;12.51;73.13
39891;BME280;25564;53.312;9.790;2023-05-21T04:25:54;101250.00;;;12.58;72.98
39891;BME280;25564;53.312;9.790;2023-05-21T04:28:25;101245.53;;;12.60;72.97
39891;BME280;25564;53.312;9.790;2023-05-21T04:30:58;101263.91;;;12.75;73.04
39891;BME280;25564;53.312;9.790;2023-05-21T04:33:30;101263.84;;;12.80;72.92
39891;BME280;25564;53.312;9.790;2023-05-21T04:36:01;101264.69;;;12.82;72.95
39891;BME280;25564;53.312;9.790;2023-05-21T04:38:34;101244.41;;;12.75;72.99
39891;BME280;25564;53.312;9.790;2023-05-21T04:41:07;101261.88;;;12.90;73.03
39891;BME280;25564;53.312;9.790;2023-05-21T04:43:40;101257.28;;;12.98;72.68
39891;BME280;25564;53.312;9.790;2023-05-21T04:46:14;101259.88;;;13.02;72.68
39891;BME280;25564;53.312;9.790;2023-05-21T04:48:45;101260.69;;;13.06;72.52
39891;BME280;25564;53.312;9.790;2023-05-21T04:51:17;101258.91;;;13.06;72.58
39891;BME280;25564;53.312;9.790;2023-05-21T04:53:48;101260.63;;;13.09;72.62
39891;BME280;25564;53.312;9.790;2023-05-21T04:56:20;101249.13;;;13.07;72.50
39891;BME280;25564;53.312;9.790;2023-05-21T04:58:56;101265.09;;;13.08;72.62
39891;BME280;25564;53.312;9.790;2023-05-21T05:01:29;101258.75;;;13.14;72.68
39891;BME280;25564;53.312;9.790;2023-05-21T05:04:02;101263.03;;;13.24;72.73
39891;BME280;25564;53.312;9.790;2023-05-21T05:06:34;101260.13;;;13.36;72.50
39891;BME280;25564;53.312;9.790;2023-05-21T05:09:06;101261.69;;;13.47;72.04
39891;BME280;25564;53.312;9.790;2023-05-21T05:11:37;101256.06;;;13.59;72.19
39891;BME280;25564;53.312;9.790;2023-05-21T05:14:09;101254.09;;;13.68;72.08
39891;BME280;25564;53.312;9.790;2023-05-21T05:16:40;101242.50;;;13.69;71.97
39891;BME280;25564;53.312;9.790;2023-05-21T05:19:13;101251.09;;;13.84;71.92
39891;BME280;25564;53.312;9.790;2023-05-21T05:21:44;101245.47;;;13.96;71.63
39891;BME280;25564;53.312;9.790;2023-05-21T05:24:16;101247.75;;;14.13;71.67
39891;BME280;25564;53.312;9.790;2023-05-21T05:26:47;101240.53;;;14.16;71.67
39891;BME280;25564;53.312;9.790;2023-05-21T05:29:19;101254.44;;;14.30;71.18
39891;BME280;25564;53.312;9.790;2023-05-21T05:31:50;101253.38;;;14.37;71.14
39891;BME280;25564;53.312;9.790;2023-05-21T05:34:21;101232.94;;;14.36;71.17
39891;BME280;25564;53.312;9.790;2023-05-21T05:36:53;101257.06;;;14.67;70.94
39891;BME280;25564;53.312;9.790;2023-05-21T05:39:24;101248.94;;;14.72;70.59
39891;BME280;25564;53.312;9.790;2023-05-21T05:41:55;101254.13;;;14.78;70.68
39891;BME280;25564;53.312;9.790;2023-05-21T05:44:27;101254.84;;;14.85;70.48
39891;BME280;25564;53.312;9.790;2023-05-21T05:46:58;101244.88;;;14.91;70.44
39891;BME280;25564;53.312;9.790;2023-05-21T05:49:30;101220.91;;;14.88;70.64
39891;BME280;25564;53.312;9.790;2023-05-21T05:52:02;101241.91;;;15.02;70.24
39891;BME280;25564;53.312;9.790;2023-05-21T05:54:33;101246.19;;;15.08;70.37
39891;BME280;25564;53.312;9.790;2023-05-21T05:57:04;101232.00;;;15.05;70.08
39891;BME280;25564;53.312;9.790;2023-05-21T05:59:36;101242.97;;;15.27;70.33
39891;BME280;25564;53.312;9.790;2023-05-21T06:02:07;101227.63;;;15.34;69.64
39891;BME280;25564;53.312;9.790;2023-05-21T06:04:39;101253.22;;;15.74;69.50
39891;BME280;25564;53.312;9.790;2023-05-21T06:07:10;101250.75;;;15.95;69.27
39891;BME280;25564;53.312;9.790;2023-05-21T06:09:42;101244.22;;;16.04;68.85
39891;BME280;25564;53.312;9.790;2023-05-21T06:12:13;101243.59;;;16.24;68.38
39891;BME280;25564;53.312;9.790;2023-05-21T06:14:46;101238.72;;;16.37;68.43
39891;BME280;25564;53.312;9.790;2023-05-21T06:17:19;101239.38;;;16.43;68.03
39891;BME280;25564;53.312;9.790;2023-05-21T06:19:50;101255.94;;;16.56;67.92
39891;BME280;25564;53.312;9.790;2023-05-21T06:22:21;101238.31;;;16.49;67.96
39891;BME280;25564;53.312;9.790;2023-05-21T06:24:55;101245.88;;;16.62;67.95
39891;BME280;25564;53.312;9.790;2023-05-21T06:27:27;101249.38;;;16.64;67.75
39891;BME280;25564;53.312;9.790;2023-05-21T06:29:58;101241.28;;;16.66;67.71
39891;BME280;25564;53.312;9.790;2023-05-21T06:32:29;101247.09;;;16.79;67.94
39891;BME280;25564;53.312;9.790;2023-05-21T06:35:01;101245.47;;;16.99;67.48
39891;BME280;25564;53.312;9.790;2023-05-21T06:37:32;101240.94;;;17.26;67.48
39891;BME280;25564;53.312;9.790;2023-05-21T06:40:04;101244.56;;;17.49;66.69
39891;BME280;25564;53.312;9.790;2023-05-21T06:42:36;101230.84;;;17.56;66.40
39891;BME280;25564;53.312;9.790;2023-05-21T06:45:08;101248.13;;;17.73;66.23
39891;BME280;25564;53.312;9.790;2023-05-21T06:47:39;101249.53;;;17.83;65.85
39891;BME280;25564;53.312;9.790;2023-05-21T06:50:11;101244.34;;;18.00;65.66
39891;BME280;25564;53.312;9.790;2023-05-21T06:52:42;101245.38;;;18.19;65.80
39891;BME280;25564;53.312;9.790;2023-05-21T06:55:14;101245.50;;;18.38;65.91
39891;BME280;25564;53.312;9.790;2023-05-21T06:57:45;101234.16;;;18.52;64.40
39891;BME280;25564;53.312;9.790;2023-05-21T07:00:17;101242.13;;;18.75;64.26
39891;BME280;25564;53.312;9.790;2023-05-21T07:02:48;101238.31;;;19.01;64.13
39891;BME280;25564;53.312;9.790;2023-05-21T07:05:20;101228.03;;;19.11;63.77
39891;BME280;25564;53.312;9.790;2023-05-21T07:07:51;101235.19;;;19.31;63.69
39891;BME280;25564;53.312;9.790;2023-05-21T07:10:23;101237.44;;;19.21;63.43
39891;BME280;25564;53.312;9.790;2023-05-21T07:12:55;101202.59;;;18.98;63.74
39891;BME280;25564;53.312;9.790;2023-05-21T07:15:27;101225.59;;;19.05;63.50
39891;BME280;25564;53.312;9.790;2023-05-21T07:17:58;101226.94;;;19.15;63.40
39891;BME280;25564;53.312;9.790;2023-05-21T07:20:30;101224.09;;;19.38;63.83
39891;BME280;25564;53.312;9.790;2023-05-21T07:23:01;101210.16;;;19.28;63.04
39891;BME280;25564;53.312;9.790;2023-05-21T07:25:33;101199.91;;;19.18;63.36
39891;BME280;25564;53.312;9.790;2023-05-21T07:28:05;101215.69;;;19.25;63.48
39891;BME280;25564;53.312;9.790;2023-05-21T07:30:37;101221.47;;;19.37;63.42
39891;BME280;25564;53.312;9.790;2023-05-21T07:33:08;101221.97;;;19.45;62.80
39891;BME280;25564;53.312;9.790;2023-05-21T07:35:39;101211.00;;;19.49;62.75
39891;BME280;25564;53.312;9.790;2023-05-21T07:38:11;101225.25;;;19.72;62.82
39891;BME280;25564;53.312;9.790;2023-05-21T07:40:43;101227.13;;;19.70;62.24
39891;BME280;25564;53.312;9.790;2023-05-21T07:43:14;101221.59;;;19.73;62.78
39891;BME280;25564;53.312;9.790;2023-05-21T07:45:46;101196.72;;;19.68;62.38
39891;BME280;25564;53.312;9.790;2023-05-21T07:48:17;101228.84;;;20.08;61.72
39891;BME280;25564;53.312;9.790;2023-05-21T07:50:49;101219.69;;;20.30;62.04
39891;BME280;25564;53.312;9.790;2023-05-21T07:53:22;101205.34;;;20.65;61.64
39891;BME280;25564;53.312;9.790;2023-05-21T07:55:54;101223.69;;;21.09;60.68
39891;BME280;25564;53.312;9.790;2023-05-21T07:58:25;101213.50;;;21.31;60.40
39891;BME280;25564;53.312;9.790;2023-05-21T08:00:57;101217.03;;;21.49;59.88
39891;BME280;25564;53.312;9.790;2023-05-21T08:03:28;101214.84;;;21.40;59.25
39891;BME280;25564;53.312;9.790;2023-05-21T08:06:01;101211.53;;;21.17;59.31
39891;BME280;25564;53.312;9.790;2023-05-21T08:08:32;101210.13;;;20.93;59.98
39891;BME280;25564;53.312;9.790;2023-05-21T08:11:04;101195.13;;;20.87;59.97
39891;BME280;25564;53.312;9.790;2023-05-21T08:13:35;101189.50;;;20.92;59.77
39891;BME280;25564;53.312;9.790;2023-05-21T08:16:06;101204.31;;;21.18;59.65
39891;BME280;25564;53.312;9.790;2023-05-21T08:18:38;101207.00;;;21.35;59.56
39891;BME280;25564;53.312;9.790;2023-05-21T08:21:09;101211.06;;;21.60;59.01
39891;BME280;25564;53.312;9.790;2023-05-21T08:23:42;101208.19;;;21.63;58.90
39891;BME280;25564;53.312;9.790;2023-05-21T08:26:14;101213.94;;;21.72;58.93
39891;BME280;25564;53.312;9.790;2023-05-21T08:28:46;101203.09;;;21.88;58.58
39891;BME280;25564;53.312;9.790;2023-05-21T08:31:18;101200.94;;;21.95;57.93
39891;BME280;25564;53.312;9.790;2023-05-21T08:33:50;101194.78;;;22.08;58.26
39891;BME280;25564;53.312;9.790;2023-05-21T08:36:23;101200.50;;;22.34;57.85
39891;BME280;25564;53.312;9.790;2023-05-21T08:38:54;101202.22;;;22.35;57.62
39891;BME280;25564;53.312;9.790;2023-05-21T08:41:26;101202.75;;;22.41;57.68
39891;BME280;25564;53.312;9.790;2023-05-21T08:44:01;101199.59;;;22.49;57.55
39891;BME280;25564;53.312;9.790;2023-05-21T08:46:34;101187.03;;;22.48;57.38
39891;BME280;25564;53.312;9.790;2023-05-21T08:49:10;101173.03;;;22.56;56.96
39891;BME280;25564;53.312;9.790;2023-05-21T08:51:43;101191.63;;;22.62;57.35
39891;BME280;25564;53.312;9.790;2023-05-21T08:54:15;101180.41;;;22.38;57.34
39891;BME280;25564;53.312;9.790;2023-05-21T08:56:46;101197.16;;;22.44;57.22
39891;BME280;25564;53.312;9.790;2023-05-21T08:59:19;101179.50;;;22.53;57.26
39891;BME280;25564;53.312;9.790;2023-05-21T09:01:51;101178.03;;;22.47;57.08
39891;BME280;25564;53.312;9.790;2023-05-21T09:04:24;101196.34;;;22.58;56.90
39891;BME280;25564;53.312;9.790;2023-05-21T09:06:56;101194.69;;;22.86;56.64
39891;BME280;25564;53.312;9.790;2023-05-21T09:09:33;101190.19;;;23.29;56.17
39891;BME280;25564;53.312;9.790;2023-05-21T09:12:08;101197.25;;;23.74;56.01
39891;BME280;25564;53.312;9.790;2023-05-21T09:14:41;101193.38;;;23.78;55.17
39891;BME280;25564;53.312;9.790;2023-05-21T09:17:13;101201.56;;;23.91;55.31
39891;BME280;25564;53.312;9.790;2023-05-21T09:20:24;101199.41;;;24.23;54.53
39891;BME280;25564;53.312;9.790;2023-05-21T09:23:02;101191.53;;;24.05;54.34
39891;BME280;25564;53.312;9.790;2023-05-21T09:25:36;101197.81;;;24.06;54.51
39891;BME280;25564;53.312;9.790;2023-05-21T09:28:13;101190.72;;;23.91;55.20
39891;BME280;25564;53.312;9.790;2023-05-21T09:30:51;101188.16;;;24.02;54.58
39891;BME280;25564;53.312;9.790;2023-05-21T09:33:25;101204.84;;;24.23;54.41
39891;BME280;25564;53.312;9.790;2023-05-21T09:35:57;101190.28;;;24.38;54.51
39891;BME280;25564;53.312;9.790;2023-05-21T09:38:29;101197.50;;;24.64;53.74
39891;BME280;25564;53.312;9.790;2023-05-21T09:41:04;101195.78;;;24.63;53.53
39891;BME280;25564;53.312;9.790;2023-05-21T09:43:36;101204.34;;;24.57;54.24
39891;BME280;25564;53.312;9.790;2023-05-21T09:46:08;101199.13;;;24.54;53.94
39891;BME280;25564;53.312;9.790;2023-05-21T09:48:41;101186.31;;;24.56;53.35
39891;BME280;25564;53.312;9.790;2023-05-21T09:51:16;101192.13;;;24.37;53.41
39891;BME280;25564;53.312;9.790;2023-05-21T09:53:54;101185.16;;;24.33;53.65
39891;BME280;25564;53.312;9.790;2023-05-21T09:56:28;101179.53;;;24.36;53.80
39891;BME280;25564;53.312;9.790;2023-05-21T09:59:02;101180.84;;;24.43;53.89
39891;BME280;25564;53.312;9.790;2023-05-21T10:01:37;101187.72;;;24.49;54.04
39891;BME280;25564;53.312;9.790;2023-05-21T10:04:08;101172.56;;;24.72;54.18
39891;BME280;25564;53.312;9.790;2023-05-21T10:06:46;101182.91;;;25.05;53.29
39891;BME280;25564;53.312;9.790;2023-05-21T10:09:18;101180.06;;;25.32;53.25
39891;BME280;25564;53.312;9.790;2023-05-21T10:11:53;101174.84;;;25.41;52.61
39891;BME280;25564;53.312;9.790;2023-05-21T10:14:26;101169.31;;;25.43;52.68
39891;BME280;25564;53.312;9.790;2023-05-21T10:16:59;101165.06;;;25.52;52.61
39891;BME280;25564;53.312;9.790;2023-05-21T10:19:31;101162.72;;;25.84;52.08
39891;BME280;25564;53.312;9.790;2023-05-21T10:22:04;101161.31;;;25.78;51.51
39891;BME280;25564;53.312;9.790;2023-05-21T10:24:36;101150.03;;;25.59;51.93
39891;BME280;25564;53.312;9.790;2023-05-21T10:27:09;101145.81;;;25.55;52.01
39891;BME280;25564;53.312;9.790;2023-05-21T10:29:42;101154.59;;;25.58;51.89
39891;BME280;25564;53.312;9.790;2023-05-21T10:32:15;101148.72;;;25.77;51.87
39891;BME280;25564;53.312;9.790;2023-05-21T10:34:47;101152.44;;;26.00;51.64
39891;BME280;25564;53.312;9.790;2023-05-21T10:37:19;101140.25;;;26.17;51.37
39891;BME280;25564;53.312;9.790;2023-05-21T10:39:54;101139.31;;;26.29;50.78
39891;BME280;25564;53.312;9.790;2023-05-21T10:51:15;101143.19;;;26.14;50.94
39891;BME280;25564;53.312;9.790;2023-05-21T10:54:05;101130.16;;;26.30;50.30
39891;BME280;25564;53.312;9.790;2023-05-21T10:57:08;101107.88;;;26.25;49.63
39891;BME280;25564;53.312;9.790;2023-05-21T10:59:46;101127.34;;;26.07;49.84
39891;BME280;25564;53.312;9.790;2023-05-21T11:02:19;101126.47;;;26.07;49.98
39891;BME280;25564;53.312;9.790;2023-05-21T11:04:58;101121.47;;;26.25;50.56
39891;BME280;25564;53.312;9.790;2023-05-21T11:07:49;101125.56;;;26.54;49.57
39891;BME280;25564;53.312;9.790;2023-05-21T11:10:36;101125.41;;;26.80;49.35
39891;BME280;25564;53.312;9.790;2023-05-21T11:13:11;101129.13;;;26.90;49.42
39891;BME280;25564;53.312;9.790;2023-05-21T11:16:03;101111.44;;;27.07;48.38
39891;BME280;25564;53.312;9.790;2023-05-21T11:21:13;101118.25;;;27.23;48.16
39891;BME280;25564;53.312;9.790;2023-05-21T11:23:58;101105.25;;;27.16;48.03
39891;BME280;25564;53.312;9.790;2023-05-21T11:29:31;101109.06;;;27.47;47.72
39891;BME280;25564;53.312;9.790;2023-05-21T11:32:04;101107.56;;;27.54;47.61
39891;BME280;25564;53.312;9.790;2023-05-21T11:34:38;101104.72;;;27.55;46.86
39891;BME280;25564;53.312;9.790;2023-05-21T11:40:15;101081.44;;;27.62;46.40
39891;BME280;25564;53.312;9.790;2023-05-21T11:42:49;101098.53;;;27.64;46.31
39891;BME280;25564;53.312;9.790;2023-05-21T11:45:27;101073.38;;;27.50;46.74
39891;BME280;25564;53.312;9.790;2023-05-21T11:47:58;101093.69;;;27.68;46.36
39891;BME280;25564;53.312;9.790;2023-05-21T11:50:30;101080.50;;;27.84;46.10
39891;BME280;25564;53.312;9.790;2023-05-21T11:53:04;101080.81;;;28.02;45.84
39891;BME280;25564;53.312;9.790;2023-05-21T11:55:37;101090.03;;;28.22;45.38
39891;BME280;25564;53.312;9.790;2023-05-21T11:58:14;101092.06;;;28.41;45.06
39891;BME280;25564;53.312;9.790;2023-05-21T12:00:49;101077.72;;;28.48;44.73
39891;BME280;25564;53.312;9.790;2023-05-21T12:03:21;101080.25;;;28.40;44.23
39891;BME280;25564;53.312;9.790;2023-05-21T12:06:03;101089.13;;;28.53;43.54
39891;BME280;25564;53.312;9.790;2023-05-21T12:08:36;101102.31;;;28.48;43.64
39891;BME280;25564;53.312;9.790;2023-05-21T12:11:08;101096.66;;;28.40;43.61
39891;BME280;25564;53.312;9.790;2023-05-21T12:13:40;101087.44;;;28.41;43.80
39891;BME280;25564;53.312;9.790;2023-05-21T12:16:11;101089.38;;;28.50;43.63
39891;BME280;25564;53.312;9.790;2023-05-21T12:18:43;101081.66;;;28.55;43.52
39891;BME280;25564;53.312;9.790;2023-05-21T12:21:15;101084.72;;;28.62;43.12
39891;BME280;25564;53.312;9.790;2023-05-21T12:23:47;101086.72;;;28.60;43.12
39891;BME280;25564;53.312;9.790;2023-05-21T12:26:18;101077.84;;;28.68;43.67
39891;BME280;25564;53.312;9.790;2023-05-21T12:28:59;101080.97;;;29.05;43.09
39891;BME280;25564;53.312;9.790;2023-05-21T12:31:30;101082.78;;;29.35;43.02
39891;BME280;25564;53.312;9.790;2023-05-21T12:34:03;101076.94;;;29.49;41.79
39891;BME280;25564;53.312;9.790;2023-05-21T12:36:34;101084.22;;;29.39;42.09
39891;BME280;25564;53.312;9.790;2023-05-21T12:39:08;101088.81;;;29.28;41.96
39891;BME280;25564;53.312;9.790;2023-05-21T12:41:42;101090.25;;;29.33;42.64
39891;BME280;25564;53.312;9.790;2023-05-21T12:44:14;101074.72;;;29.33;42.27
39891;BME280;25564;53.312;9.790;2023-05-21T12:46:45;101075.78;;;29.42;42.14
39891;BME280;25564;53.312;9.790;2023-05-21T12:49:35;101074.09;;;29.20;41.26
39891;BME280;25564;53.312;9.790;2023-05-21T12:52:09;101071.91;;;29.04;41.57
39891;BME280;25564;53.312;9.790;2023-05-21T12:54:44;101071.22;;;29.12;42.03
39891;BME280;25564;53.312;9.790;2023-05-21T12:57:17;101068.31;;;29.13;41.82
39891;BME280;25564;53.312;9.790;2023-05-21T12:59:57;101060.88;;;29.25;41.40
39891;BME280;25564;53.312;9.790;2023-05-21T13:02:33;101058.16;;;29.35;41.50
39891;BME280;25564;53.312;9.790;2023-05-21T13:05:14;101048.78;;;29.27;40.69
39891;BME280;25564;53.312;9.790;2023-05-21T13:07:47;101060.69;;;29.07;40.96
39891;BME280;25564;53.312;9.790;2023-05-21T13:10:21;101048.94;;;28.86;41.24
39891;BME280;25564;53.312;9.790;2023-05-21T13:12:53;101043.38;;;28.97;41.36
39891;BME280;25564;53.312;9.790;2023-05-21T13:15:24;101048.63;;;29.19;41.20
39891;BME280;25564;53.312;9.790;2023-05-21T13:17:56;101037.50;;;29.42;41.49
39891;BME280;25564;53.312;9.790;2023-05-21T13:20:28;101049.78;;;29.76;40.87
39891;BME280;25564;53.312;9.790;2023-05-21T13:22:59;101041.59;;;29.76;40.46
39891;BME280;25564;53.312;9.790;2023-05-21T13:25:34;101045.19;;;29.77;40.01
39891;BME280;25564;53.312;9.790;2023-05-21T13:28:05;101043.88;;;29.71;40.03
39891;BME280;25564;53.312;9.790;2023-05-21T13:30:38;101035.09;;;29.58;39.94
39891;BME280;25564;53.312;9.790;2023-05-21T13:33:10;101050.19;;;29.52;41.04
39891;BME280;25564;53.312;9.790;2023-05-21T13:35:42;101045.13;;;29.48;40.34
39891;BME280;25564;53.312;9.790;2023-05-21T13:38:16;101039.63;;;29.38;40.68
39891;BME280;25564;53.312;9.790;2023-05-21T13:40:47;101039.69;;;29.17;40.40